createdAt,value
2023-03-25T00:00:29.044Z,95.32
2023-03-25T00:02:55.960Z,95.17
2023-03-25T00:05:23.033Z,94.52
2023-03-25T00:07:52.978Z,95.17
2023-03-25T00:10:20.671Z,94.98
2023-03-25T00:12:47.643Z,94.80
2023-03-25T00:15:16.656Z,94.88
2023-03-25T00:17:44.418Z,95.42
2023-03-25T00:20:12.518Z,95.67
2023-03-25T00:22:42.092Z,96.55
2023-03-25T00:25:11.656Z,96.15
2023-03-25T00:27:38.559Z,96.66
2023-03-25T00:30:06.865Z,95.95
2023-03-25T00:32:33.886Z,95.68
2023-03-25T00:35:00.768Z,95.34
2023-03-25T00:37:27.620Z,95.71
2023-03-25T00:39:54.464Z,96.08
2023-03-25T00:42:26.554Z,95.95
2023-03-25T00:44:54.464Z,96.41
2023-03-25T00:47:22.319Z,96.09
2023-03-25T00:49:50.980Z,96.17
2023-03-25T00:52:18.493Z,95.74
2023-03-25T00:54:46.084Z,95.51
2023-03-25T00:57:13.296Z,97.06
2023-03-25T00:59:40.737Z,96.98
2023-03-25T01:02:07.653Z,98.12
2023-03-25T01:04:35.621Z,97.20
2023-03-25T01:07:03.649Z,97.43
2023-03-25T01:09:31.392Z,97.57
2023-03-25T01:11:58.438Z,97.35
2023-03-25T01:14:27.872Z,97.25
2023-03-25T01:16:55.546Z,96.68
2023-03-25T01:19:24.237Z,96.92
2023-03-25T01:21:51.616Z,96.15
2023-03-25T01:24:19.000Z,96.44
2023-03-25T01:26:46.364Z,96.00
2023-03-25T01:29:16.261Z,96.71
2023-03-25T01:31:43.586Z,96.50
2023-03-25T01:34:11.267Z,96.10
2023-03-25T01:36:40.009Z,97.49
2023-03-25T01:39:09.276Z,98.74
2023-03-25T01:41:49.253Z,98.95
2023-03-25T01:44:19.868Z,98.41
2023-03-25T01:46:53.916Z,98.00
2023-03-25T01:49:27.069Z,99.10
2023-03-25T01:51:58.213Z,98.38
2023-03-25T01:54:25.460Z,98.30
2023-03-25T01:56:52.526Z,99.43
2023-03-25T01:59:25.009Z,99.91
2023-03-25T02:01:53.773Z,100.00
2023-03-25T02:04:42.975Z,100.00
2023-03-25T02:07:10.604Z,100.00
2023-03-25T02:09:39.357Z,100.00
2023-03-25T02:12:06.260Z,100.00
2023-03-25T02:14:36.624Z,100.00
2023-03-25T02:17:22.268Z,100.00
2023-03-25T02:20:35.434Z,100.00
2023-03-25T02:23:42.431Z,100.00
2023-03-25T02:26:56.572Z,100.00
2023-03-25T02:29:59.654Z,100.00
2023-03-25T02:32:54.273Z,100.00
2023-03-25T02:36:01.106Z,100.00
2023-03-25T02:38:42.001Z,100.00
2023-03-25T02:41:25.985Z,100.00
2023-03-25T02:44:03.529Z,100.00
2023-03-25T02:46:33.178Z,100.00
2023-03-25T02:49:06.370Z,100.00
2023-03-25T02:51:39.143Z,100.00
2023-03-25T02:54:14.319Z,100.00
2023-03-25T02:56:44.834Z,100.00
2023-03-25T02:59:16.960Z,100.00
2023-03-25T03:01:45.074Z,100.00
2023-03-25T03:04:11.968Z,100.00
2023-03-25T03:06:43.571Z,100.00
2023-03-25T03:09:16.542Z,100.00
2023-03-25T03:12:08.643Z,100.00
2023-03-25T03:15:04.827Z,100.00
2023-03-25T03:18:08.142Z,100.00
2023-03-25T03:20:41.326Z,100.00
2023-03-25T03:23:29.364Z,100.00
2023-03-25T03:26:28.484Z,100.00
2023-03-25T03:29:12.557Z,100.00
2023-03-25T03:32:06.700Z,100.00
2023-03-25T03:35:15.839Z,100.00
2023-03-25T03:37:49.460Z,100.00
2023-03-25T03:40:21.124Z,100.00
2023-03-25T03:42:57.982Z,100.00
2023-03-25T03:45:34.454Z,100.00
2023-03-25T03:48:08.490Z,100.00
2023-03-25T03:50:44.866Z,100.00
2023-03-25T03:53:22.141Z,100.00
2023-03-25T03:56:03.864Z,100.00
2023-03-25T03:58:36.940Z,100.00
2023-03-25T04:01:46.469Z,99.08
2023-03-25T04:04:21.334Z,98.51
2023-03-25T04:06:57.097Z,97.36
2023-03-25T04:09:42.084Z,97.75
2023-03-25T04:12:15.968Z,98.42
2023-03-25T04:14:43.387Z,97.48
2023-03-25T04:17:10.954Z,98.27
2023-03-25T04:19:38.090Z,98.00
2023-03-25T04:22:07.216Z,96.41
2023-03-25T04:24:37.912Z,94.91
2023-03-25T04:27:05.093Z,95.04
2023-03-25T04:29:32.594Z,95.60
2023-03-25T04:32:01.001Z,95.71
2023-03-25T04:34:30.650Z,96.39
2023-03-25T04:36:58.609Z,97.95
2023-03-25T04:39:25.894Z,97.32
2023-03-25T04:42:03.863Z,96.33
2023-03-25T04:44:33.924Z,96.31
2023-03-25T04:47:02.664Z,95.60
2023-03-25T04:49:29.511Z,96.06
2023-03-25T04:51:57.169Z,95.97
2023-03-25T04:54:24.505Z,95.10
2023-03-25T04:56:52.567Z,95.68
2023-03-25T04:59:21.475Z,96.28
2023-03-25T05:01:49.302Z,95.99
2023-03-25T05:04:17.912Z,96.66
2023-03-25T05:06:49.580Z,96.19
2023-03-25T05:09:20.090Z,96.07
2023-03-25T05:11:47.399Z,96.52
2023-03-25T05:14:17.609Z,96.29
2023-03-25T05:16:45.559Z,96.79
2023-03-25T05:19:12.941Z,96.71
2023-03-25T05:21:43.935Z,97.18
2023-03-25T05:24:13.720Z,96.87
2023-03-25T05:26:42.828Z,97.43
2023-03-25T05:29:15.718Z,97.01
2023-03-25T05:31:44.885Z,96.91
2023-03-25T05:34:12.096Z,96.87
2023-03-25T05:36:40.074Z,96.27
2023-03-25T05:39:08.581Z,96.70
2023-03-25T05:41:39.250Z,95.93
2023-03-25T05:44:15.683Z,96.29
2023-03-25T05:46:42.698Z,95.92
2023-03-25T05:49:09.601Z,95.48
2023-03-25T05:51:39.250Z,95.58
2023-03-25T05:54:11.796Z,96.13
2023-03-25T05:56:38.944Z,96.73
2023-03-25T05:59:05.930Z,96.38
2023-03-25T06:01:34.402Z,97.37
2023-03-25T06:04:03.148Z,97.95
2023-03-25T06:06:34.503Z,98.46
2023-03-25T06:09:03.144Z,99.41
2023-03-25T06:11:30.473Z,99.32
2023-03-25T06:13:57.384Z,99.69
2023-03-25T06:16:30.637Z,99.68
2023-03-25T06:19:02.702Z,100.00
2023-03-25T06:21:33.459Z,100.00
2023-03-25T06:24:04.206Z,100.00
2023-03-25T06:26:32.925Z,100.00
2023-03-25T06:29:00.016Z,100.00
2023-03-25T06:31:27.635Z,100.00
2023-03-25T06:33:56.305Z,100.00
2023-03-25T06:36:25.842Z,100.00
2023-03-25T06:38:53.575Z,100.00
2023-03-25T06:41:21.255Z,100.00
2023-03-25T06:43:49.052Z,100.00
2023-03-25T06:46:16.558Z,100.00
2023-03-25T06:48:43.522Z,100.00
2023-03-25T06:51:10.857Z,100.00
2023-03-25T06:53:37.847Z,100.00
2023-03-25T06:56:05.065Z,100.00
2023-03-25T06:58:35.464Z,100.00
2023-03-25T07:01:07.728Z,100.00
2023-03-25T07:03:36.675Z,100.00
2023-03-25T07:06:05.635Z,100.00
2023-03-25T07:08:34.387Z,100.00
2023-03-25T07:11:08.545Z,100.00
2023-03-25T07:13:35.531Z,100.00
2023-03-25T07:16:03.424Z,100.00
2023-03-25T07:18:30.603Z,100.00
2023-03-25T07:20:57.448Z,100.00
2023-03-25T07:23:24.320Z,100.00
2023-03-25T07:25:51.460Z,100.00
2023-03-25T07:28:19.281Z,100.00
2023-03-25T07:30:46.288Z,100.00
2023-03-25T07:33:13.473Z,100.00
2023-03-25T07:35:40.572Z,100.00
2023-03-25T07:38:07.545Z,100.00
2023-03-25T07:40:34.420Z,100.00
2023-03-25T07:43:01.361Z,100.00
2023-03-25T07:45:28.249Z,100.00
2023-03-25T07:47:55.412Z,100.00
2023-03-25T07:50:25.930Z,100.00
2023-03-25T07:52:54.191Z,100.00
2023-03-25T07:55:21.277Z,98.53
2023-03-25T07:57:48.287Z,98.78
2023-03-25T08:00:15.336Z,99.18
2023-03-25T08:02:42.398Z,97.33
2023-03-25T08:05:09.822Z,95.94
2023-03-25T08:07:36.711Z,94.13
2023-03-25T08:10:04.313Z,94.59
2023-03-25T08:12:31.238Z,93.73
2023-03-25T08:14:58.177Z,92.76
2023-03-25T08:17:25.086Z,93.65
2023-03-25T08:19:52.065Z,92.59
2023-03-25T08:22:19.124Z,93.05
2023-03-25T08:24:46.005Z,92.65
2023-03-25T08:27:14.705Z,93.65
2023-03-25T08:29:44.660Z,93.67
2023-03-25T08:32:11.680Z,94.53
2023-03-25T08:34:40.200Z,94.41
2023-03-25T08:37:08.254Z,93.42
2023-03-25T08:39:40.280Z,93.82
2023-03-25T08:42:08.542Z,93.83
2023-03-25T08:44:35.860Z,93.42
2023-03-25T08:47:02.962Z,95.04
2023-03-25T08:49:30.763Z,95.05
2023-03-25T08:51:59.238Z,93.94
2023-03-25T08:54:27.408Z,94.19
2023-03-25T08:56:54.896Z,96.25
2023-03-25T08:59:27.364Z,94.79
2023-03-25T09:01:56.023Z,96.46
2023-03-25T09:04:26.579Z,97.90
2023-03-25T09:07:10.360Z,97.93
2023-03-25T09:09:42.482Z,99.36
2023-03-25T09:12:09.948Z,99.18
2023-03-25T09:14:37.445Z,99.23
2023-03-25T09:17:06.593Z,98.35
2023-03-25T09:19:38.374Z,99.28
2023-03-25T09:22:06.703Z,99.63
2023-03-25T09:24:34.457Z,100.00
2023-03-25T09:27:02.668Z,99.78
2023-03-25T09:29:29.908Z,100.00
2023-03-25T09:31:58.546Z,99.17
2023-03-25T09:34:27.347Z,99.11
2023-03-25T09:36:55.402Z,98.72
2023-03-25T09:39:22.643Z,97.79
2023-03-25T09:42:24.310Z,98.91
2023-03-25T09:45:39.958Z,99.48
2023-03-25T09:48:21.863Z,100.00
2023-03-25T09:50:49.271Z,99.33
2023-03-25T09:53:46.034Z,99.62
2023-03-25T09:56:18.717Z,100.00
2023-03-25T09:58:56.547Z,99.62
2023-03-25T10:01:53.527Z,100.00
2023-03-25T10:04:57.139Z,99.64
2023-03-25T10:07:23.930Z,100.00
2023-03-25T10:10:05.695Z,100.00
2023-03-25T10:12:43.456Z,99.56
2023-03-25T10:15:32.596Z,100.00
2023-03-25T10:18:44.655Z,99.36
2023-03-25T10:21:37.480Z,98.46
2023-03-25T10:24:19.342Z,100.00
2023-03-25T10:26:56.077Z,98.07
2023-03-25T10:29:33.369Z,96.10
2023-03-25T10:32:07.487Z,96.08
2023-03-25T10:34:47.614Z,88.90
2023-03-25T10:37:24.387Z,89.88
2023-03-25T10:39:51.806Z,91.52
2023-03-25T10:42:29.534Z,89.73
2023-03-25T10:44:56.905Z,88.16
2023-03-25T10:47:37.063Z,85.89
2023-03-25T10:50:04.894Z,85.31
2023-03-25T10:52:31.803Z,86.23
2023-03-25T10:54:59.041Z,85.62
2023-03-25T10:57:29.240Z,83.84
2023-03-25T11:00:20.646Z,82.67
2023-03-25T11:02:48.345Z,83.77
2023-03-25T11:05:25.048Z,83.31
2023-03-25T11:08:11.597Z,83.59
2023-03-25T11:10:48.434Z,81.69
2023-03-25T11:13:17.465Z,83.81
2023-03-25T11:15:44.629Z,82.40
2023-03-25T11:18:23.342Z,80.14
2023-03-25T11:20:54.607Z,81.80
2023-03-25T11:23:30.858Z,85.00
2023-03-25T11:26:07.746Z,83.39
2023-03-25T11:28:41.844Z,84.55
2023-03-25T11:31:10.345Z,84.90
2023-03-25T11:33:43.943Z,81.37
2023-03-25T11:36:25.647Z,80.15
2023-03-25T11:38:59.580Z,85.84
2023-03-25T11:41:32.246Z,78.42
2023-03-25T11:43:59.769Z,80.17
2023-03-25T11:46:26.886Z,75.03
2023-03-25T11:48:53.986Z,72.39
2023-03-25T11:51:26.215Z,69.19
2023-03-25T11:54:06.966Z,70.38
2023-03-25T11:56:38.400Z,72.86
2023-03-25T11:59:34.383Z,64.94
2023-03-25T12:02:16.996Z,63.68
2023-03-25T12:05:12.705Z,63.83
2023-03-25T12:07:44.010Z,64.07
2023-03-25T12:10:35.154Z,59.53
2023-03-25T12:13:04.848Z,59.87
2023-03-25T12:16:08.046Z,59.12
2023-03-25T12:19:27.265Z,60.26
2023-03-25T12:22:33.605Z,59.26
2023-03-25T12:25:13.292Z,59.55
2023-03-25T12:27:50.641Z,60.26
2023-03-25T12:30:39.850Z,58.00
2023-03-25T12:33:54.908Z,58.81
2023-03-25T12:36:49.785Z,58.57
2023-03-25T12:40:10.333Z,56.17
2023-03-25T12:42:56.164Z,56.71
2023-03-25T12:45:41.134Z,57.18
2023-03-25T12:48:25.729Z,56.27
2023-03-25T12:51:48.692Z,55.76
2023-03-25T12:54:58.917Z,55.64
2023-03-25T12:57:42.519Z,55.61
2023-03-25T13:00:34.476Z,53.79
2023-03-25T13:04:44.665Z,55.50
2023-03-25T13:06:58.935Z,55.71
2023-03-25T13:09:49.412Z,56.50
2023-03-25T13:12:39.456Z,53.88
2023-03-25T13:15:31.337Z,53.71
2023-03-25T13:18:37.597Z,54.70
2023-03-25T13:21:14.870Z,54.22
2023-03-25T13:23:44.791Z,54.70
2023-03-25T13:27:11.020Z,55.06
2023-03-25T13:29:44.228Z,54.32
2023-03-25T13:32:34.824Z,53.57
2023-03-25T13:35:16.425Z,53.88
2023-03-25T13:37:50.793Z,55.31
2023-03-25T13:41:16.208Z,53.67
2023-03-25T13:43:54.755Z,51.41
2023-03-25T13:46:29.982Z,52.99
2023-03-25T13:49:05.718Z,53.14
2023-03-25T13:51:32.739Z,52.55
2023-03-25T13:54:12.793Z,51.47
2023-03-25T13:57:25.674Z,52.66
2023-03-25T14:00:32.555Z,52.79
2023-03-25T14:03:49.901Z,52.07
2023-03-25T14:06:44.454Z,48.35
2023-03-25T14:10:12.685Z,49.85
2023-03-25T14:13:07.070Z,48.53
2023-03-25T14:15:39.425Z,50.34
2023-03-25T14:18:21.265Z,50.18
2023-03-25T14:20:50.835Z,49.74
2023-03-25T14:23:21.281Z,48.17
2023-03-25T14:25:59.084Z,49.04
2023-03-25T14:28:44.577Z,48.63
2023-03-25T14:31:14.386Z,50.39
2023-03-25T14:34:00.207Z,51.18
2023-03-25T14:36:39.911Z,51.64
2023-03-25T14:39:12.772Z,53.28
2023-03-25T14:41:59.445Z,51.88
2023-03-25T14:44:33.302Z,53.57
2023-03-25T14:47:27.631Z,53.39
2023-03-25T14:50:06.933Z,54.32
2023-03-25T14:52:42.096Z,52.01
2023-03-25T14:55:49.852Z,50.18
2023-03-25T14:58:26.601Z,51.80
2023-03-25T15:01:02.904Z,54.40
2023-03-25T15:03:44.062Z,56.42
2023-03-25T15:06:22.713Z,56.13
2023-03-25T15:08:56.904Z,54.71
2023-03-25T15:11:33.827Z,56.21
2023-03-25T15:14:15.275Z,56.21
2023-03-25T15:16:48.549Z,56.68
2023-03-25T15:19:18.810Z,56.56
2023-03-25T15:22:08.036Z,57.27
2023-03-25T15:24:38.030Z,56.84
2023-03-25T15:27:27.082Z,57.29
2023-03-25T15:30:09.757Z,56.54
2023-03-25T15:33:21.198Z,55.89
2023-03-25T15:36:24.812Z,57.34
2023-03-25T15:39:08.149Z,56.42
2023-03-25T15:41:34.854Z,56.08
2023-03-25T15:44:57.998Z,55.87
2023-03-25T15:47:44.048Z,55.33
2023-03-25T15:50:50.127Z,56.32
2023-03-25T15:53:53.157Z,56.26
2023-03-25T15:56:31.554Z,55.87
2023-03-25T15:59:42.570Z,56.69
2023-03-25T16:02:24.859Z,57.08
2023-03-25T16:04:53.017Z,56.42
2023-03-25T16:07:28.992Z,56.84
2023-03-25T16:09:55.971Z,56.97
2023-03-25T16:12:25.673Z,56.99
2023-03-25T16:15:08.745Z,56.74
2023-03-25T16:17:36.822Z,55.92
2023-03-25T16:20:06.987Z,56.34
2023-03-25T16:22:38.115Z,56.37
2023-03-25T16:25:15.327Z,55.74
2023-03-25T16:27:46.086Z,55.64
2023-03-25T16:30:53.477Z,55.73
2023-03-25T16:33:31.187Z,54.59
2023-03-25T16:36:10.097Z,52.58
2023-03-25T16:38:37.042Z,53.56
2023-03-25T16:41:12.029Z,53.75
2023-03-25T16:43:39.395Z,53.86
2023-03-25T16:46:09.234Z,53.83
2023-03-25T16:48:40.628Z,54.29
2023-03-25T16:51:16.068Z,53.92
2023-03-25T16:53:43.790Z,53.93
2023-03-25T16:56:10.581Z,54.09
2023-03-25T16:58:58.080Z,54.31
2023-03-25T17:01:25.825Z,54.45
2023-03-25T17:04:01.816Z,54.77
2023-03-25T17:06:40.169Z,55.15
2023-03-25T17:09:26.790Z,55.82
2023-03-25T17:11:57.586Z,55.72
2023-03-25T17:14:38.673Z,56.13
2023-03-25T17:17:38.050Z,56.79
2023-03-25T17:20:13.027Z,56.46
2023-03-25T17:22:40.836Z,57.26
2023-03-25T17:25:27.414Z,57.27
2023-03-25T17:28:05.535Z,58.95
2023-03-25T17:30:40.948Z,58.30
2023-03-25T17:33:34.436Z,58.68
2023-03-25T17:36:03.865Z,58.90
2023-03-25T17:38:38.689Z,59.89
2023-03-25T17:41:11.623Z,61.68
2023-03-25T17:43:44.187Z,62.73
2023-03-25T17:46:16.422Z,63.06
2023-03-25T17:48:43.333Z,63.13
2023-03-25T17:51:12.709Z,64.17
2023-03-25T17:53:39.660Z,64.93
2023-03-25T17:56:07.022Z,64.99
2023-03-25T17:58:33.974Z,65.95
2023-03-25T18:01:01.544Z,65.90
2023-03-25T18:03:32.247Z,66.29
2023-03-25T18:06:01.047Z,66.43
2023-03-25T18:08:28.420Z,66.47
2023-03-25T18:10:55.971Z,65.79
2023-03-25T18:13:26.939Z,66.98
2023-03-25T18:15:55.006Z,67.25
2023-03-25T18:18:26.358Z,67.34
2023-03-25T18:21:00.344Z,66.91
2023-03-25T18:23:28.570Z,67.69
2023-03-25T18:25:56.377Z,67.17
2023-03-25T18:28:25.076Z,66.98
2023-03-25T18:30:56.111Z,68.07
2023-03-25T18:33:24.003Z,68.63
2023-03-25T18:35:52.890Z,68.82
2023-03-25T18:38:24.631Z,68.92
2023-03-25T18:40:53.187Z,69.49
2023-03-25T18:43:21.522Z,70.79
2023-03-25T18:45:49.422Z,75.18
2023-03-25T18:48:21.429Z,80.07
2023-03-25T18:50:55.196Z,82.24
2023-03-25T18:53:29.516Z,83.68
2023-03-25T18:56:00.974Z,85.73
2023-03-25T18:58:31.558Z,87.38
2023-03-25T19:00:59.717Z,87.60
2023-03-25T19:03:31.848Z,88.85
2023-03-25T19:06:00.532Z,89.10
2023-03-25T19:08:28.966Z,90.08
2023-03-25T19:11:04.832Z,90.23
2023-03-25T19:13:39.741Z,89.47
2023-03-25T19:16:07.114Z,89.34
2023-03-25T19:18:34.148Z,89.13
2023-03-25T19:21:01.216Z,89.93
2023-03-25T19:23:28.433Z,90.08
2023-03-25T19:25:58.197Z,91.02
2023-03-25T19:28:25.192Z,91.40
2023-03-25T19:30:54.931Z,91.35
2023-03-25T19:33:22.071Z,91.31
2023-03-25T19:35:55.755Z,92.54
2023-03-25T19:38:23.152Z,92.58
2023-03-25T19:40:52.523Z,91.78
2023-03-25T19:43:19.628Z,93.01
2023-03-25T19:45:46.623Z,94.09
2023-03-25T19:48:13.538Z,94.02
2023-03-25T19:50:41.129Z,93.82
2023-03-25T19:53:08.423Z,93.71
2023-03-25T19:55:35.452Z,94.60
2023-03-25T19:58:02.800Z,95.87
2023-03-25T20:00:30.752Z,94.72
2023-03-25T20:03:01.158Z,94.36
2023-03-25T20:05:31.334Z,93.90
2023-03-25T20:07:58.934Z,95.31
2023-03-25T20:10:30.458Z,95.24
2023-03-25T20:12:58.469Z,94.11
2023-03-25T20:15:26.645Z,95.33
2023-03-25T20:17:55.203Z,95.67
2023-03-25T20:20:23.540Z,95.46
2023-03-25T20:22:50.778Z,95.49
2023-03-25T20:25:18.356Z,96.16
2023-03-25T20:27:45.805Z,95.67
2023-03-25T20:30:17.506Z,96.21
2023-03-25T20:32:47.580Z,96.90
2023-03-25T20:35:17.018Z,97.38
2023-03-25T20:37:46.522Z,97.79
2023-03-25T20:40:16.779Z,97.93
2023-03-25T20:42:46.048Z,96.81
2023-03-25T20:45:16.124Z,96.27
2023-03-25T20:47:43.783Z,96.23
2023-03-25T20:50:14.718Z,94.98
2023-03-25T20:52:41.684Z,97.04
2023-03-25T20:55:10.183Z,96.84
2023-03-25T20:57:38.340Z,96.96
2023-03-25T21:00:07.312Z,96.24
2023-03-25T21:02:34.610Z,96.90
2023-03-25T21:05:03.416Z,97.11
2023-03-25T21:07:35.392Z,96.79
2023-03-25T21:10:02.563Z,97.27
2023-03-25T21:12:40.717Z,98.13
2023-03-25T21:15:10.812Z,98.92
2023-03-25T21:17:38.055Z,98.63
2023-03-25T21:20:07.542Z,98.25
2023-03-25T21:22:35.235Z,98.28
2023-03-25T21:25:02.368Z,98.20
2023-03-25T21:27:39.244Z,99.44
2023-03-25T21:30:12.163Z,99.33
2023-03-25T21:32:39.342Z,99.14
2023-03-25T21:35:08.139Z,99.71
2023-03-25T21:37:39.115Z,99.64
2023-03-25T21:40:10.841Z,100.00
2023-03-25T21:42:41.509Z,99.94
2023-03-25T21:45:11.680Z,100.00
2023-03-25T21:47:38.780Z,100.00
2023-03-25T21:50:10.092Z,100.00
2023-03-25T21:52:43.233Z,100.00
2023-03-25T21:55:11.410Z,100.00
2023-03-25T21:57:39.778Z,100.00
2023-03-25T22:00:09.114Z,100.00
2023-03-25T22:02:36.795Z,100.00
2023-03-25T22:05:04.271Z,100.00
2023-03-25T22:07:31.309Z,100.00
2023-03-25T22:09:58.168Z,100.00
2023-03-25T22:12:25.134Z,100.00
2023-03-25T22:14:51.975Z,100.00
2023-03-25T22:17:19.137Z,100.00
2023-03-25T22:19:48.032Z,100.00
2023-03-25T22:22:19.284Z,100.00
2023-03-25T22:24:47.410Z,100.00
2023-03-25T22:27:14.664Z,100.00
2023-03-25T22:29:45.090Z,100.00
2023-03-25T22:32:12.224Z,100.00
2023-03-25T22:34:39.887Z,100.00
2023-03-25T22:37:07.008Z,100.00
2023-03-25T22:39:33.968Z,100.00
2023-03-25T22:42:00.973Z,100.00
2023-03-25T22:44:28.133Z,100.00
2023-03-25T22:46:55.491Z,100.00
2023-03-25T22:49:22.804Z,100.00
2023-03-25T22:51:49.793Z,100.00
2023-03-25T22:54:16.965Z,100.00
2023-03-25T22:56:45.579Z,100.00
2023-03-25T22:59:14.163Z,100.00
2023-03-25T23:01:42.809Z,100.00
2023-03-25T23:04:09.760Z,100.00
2023-03-25T23:06:37.121Z,100.00
2023-03-25T23:09:08.571Z,100.00
2023-03-25T23:11:37.639Z,100.00
2023-03-25T23:14:09.154Z,100.00
2023-03-25T23:16:37.177Z,100.00
2023-03-25T23:19:06.455Z,100.00
2023-03-25T23:21:34.423Z,100.00
2023-03-25T23:24:04.142Z,100.00
2023-03-25T23:26:40.558Z,100.00
2023-03-25T23:29:10.874Z,100.00
2023-03-25T23:31:41.972Z,100.00
2023-03-25T23:34:12.793Z,100.00
2023-03-25T23:36:40.117Z,100.00
2023-03-25T23:39:16.029Z,100.00
2023-03-25T23:41:43.265Z,100.00
2023-03-25T23:44:10.903Z,100.00
2023-03-25T23:46:38.062Z,100.00
2023-03-25T23:49:18.269Z,100.00
2023-03-25T23:51:45.891Z,100.00
2023-03-25T23:54:15.559Z,100.00
2023-03-25T23:56:43.214Z,100.00
2023-03-25T23:59:11.908Z,100.00
